sensor_id;sensor_type;location;lat;lon;timestamp;pressure;altitude;pressure_sealevel;temperature
67758;BMP180;54562;47.620;18.786;2023-02-13T00:00:31;100504.80;;;-1.00
67758;BMP180;54562;47.620;18.786;2023-02-13T00:03:40;100510.60;;;-1.00
67758;BMP180;54562;47.620;18.786;2023-02-13T00:06:47;100514.60;;;-1.00
67758;BMP180;54562;47.620;18.786;2023-02-13T00:09:55;100508.00;;;-1.08
67758;BMP180;54562;47.620;18.786;2023-02-13T00:13:03;100511.60;;;-1.10
67758;BMP180;54562;47.620;18.786;2023-02-13T00:16:12;100517.40;;;-1.10
67758;BMP180;54562;47.620;18.786;2023-02-13T00:19:20;100519.00;;;-1.12
67758;BMP180;54562;47.620;18.786;2023-02-13T00:22:28;100524.80;;;-1.20
67758;BMP180;54562;47.620;18.786;2023-02-13T00:25:37;100519.20;;;-1.20
67758;BMP180;54562;47.620;18.786;2023-02-13T00:28:46;100528.60;;;-1.20
67758;BMP180;54562;47.620;18.786;2023-02-13T00:31:54;100525.60;;;-1.26
67758;BMP180;54562;47.620;18.786;2023-02-13T00:35:02;100524.00;;;-1.30
67758;BMP180;54562;47.620;18.786;2023-02-13T00:38:10;100521.00;;;-1.30
67758;BMP180;54562;47.620;18.786;2023-02-13T00:41:19;100522.80;;;-1.30
67758;BMP180;54562;47.620;18.786;2023-02-13T00:44:27;100533.40;;;-1.30
67758;BMP180;54562;47.620;18.786;2023-02-13T00:47:35;100533.00;;;-1.30
67758;BMP180;54562;47.620;18.786;2023-02-13T00:50:43;100529.40;;;-1.30
67758;BMP180;54562;47.620;18.786;2023-02-13T00:53:51;100527.80;;;-1.30
67758;BMP180;54562;47.620;18.786;2023-02-13T00:57:00;100526.60;;;-1.30
67758;BMP180;54562;47.620;18.786;2023-02-13T01:00:11;100519.00;;;-1.40
67758;BMP180;54562;47.620;18.786;2023-02-13T01:03:30;100514.40;;;-1.40
67758;BMP180;54562;47.620;18.786;2023-02-13T01:06:59;100510.60;;;-1.50
67758;BMP180;54562;47.620;18.786;2023-02-13T01:10:08;100520.20;;;-1.50
67758;BMP180;54562;47.620;18.786;2023-02-13T01:13:16;100516.20;;;-1.50
67758;BMP180;54562;47.620;18.786;2023-02-13T01:16:25;100507.60;;;-1.50
67758;BMP180;54562;47.620;18.786;2023-02-13T01:19:33;100509.00;;;-1.50
67758;BMP180;54562;47.620;18.786;2023-02-13T01:22:42;100514.00;;;-1.50
67758;BMP180;54562;47.620;18.786;2023-02-13T01:25:50;100511.00;;;-1.50
67758;BMP180;54562;47.620;18.786;2023-02-13T01:28:58;100500.80;;;-1.50
67758;BMP180;54562;47.620;18.786;2023-02-13T01:32:06;100494.20;;;-1.50
67758;BMP180;54562;47.620;18.786;2023-02-13T01:35:15;100500.20;;;-1.50
67758;BMP180;54562;47.620;18.786;2023-02-13T01:38:23;100499.60;;;-1.50
67758;BMP180;54562;47.620;18.786;2023-02-13T01:41:32;100502.00;;;-1.50
67758;BMP180;54562;47.620;18.786;2023-02-13T01:44:54;100505.40;;;-1.48
67758;BMP180;54562;47.620;18.786;2023-02-13T01:48:07;100506.40;;;-1.40
67758;BMP180;54562;47.620;18.786;2023-02-13T01:51:21;100507.20;;;-1.40
67758;BMP180;54562;47.620;18.786;2023-02-13T01:54:34;100497.00;;;-1.40
67758;BMP180;54562;47.620;18.786;2023-02-13T01:57:48;100493.00;;;-1.36
67758;BMP180;54562;47.620;18.786;2023-02-13T02:00:58;100496.20;;;-1.30
67758;BMP180;54562;47.620;18.786;2023-02-13T02:04:13;100494.00;;;-1.30
67758;BMP180;54562;47.620;18.786;2023-02-13T02:07:26;100488.40;;;-1.30
67758;BMP180;54562;47.620;18.786;2023-02-13T02:10:36;100485.20;;;-1.30
67758;BMP180;54562;47.620;18.786;2023-02-13T02:13:44;100483.20;;;-1.30
67758;BMP180;54562;47.620;18.786;2023-02-13T02:16:53;100488.20;;;-1.22
67758;BMP180;54562;47.620;18.786;2023-02-13T02:20:16;100484.60;;;-1.30
67758;BMP180;54562;47.620;18.786;2023-02-13T02:24:00;100485.20;;;-1.30
67758;BMP180;54562;47.620;18.786;2023-02-13T02:35:12;100483.20;;;-1.26
67758;BMP180;54562;47.620;18.786;2023-02-13T02:38:44;100478.40;;;-1.26
67758;BMP180;54562;47.620;18.786;2023-02-13T02:42:07;100474.60;;;-1.30
67758;BMP180;54562;47.620;18.786;2023-02-13T02:45:26;100472.80;;;-1.30
67758;BMP180;54562;47.620;18.786;2023-02-13T02:48:46;100473.20;;;-1.40
67758;BMP180;54562;47.620;18.786;2023-02-13T02:52:19;100471.20;;;-1.50
67758;BMP180;54562;47.620;18.786;2023-02-13T02:55:42;100472.60;;;-1.50
67758;BMP180;54562;47.620;18.786;2023-02-13T02:58:59;100467.00;;;-1.60
67758;BMP180;54562;47.620;18.786;2023-02-13T03:02:27;100459.60;;;-1.60
67758;BMP180;54562;47.620;18.786;2023-02-13T03:05:51;100462.40;;;-1.60
67758;BMP180;54562;47.620;18.786;2023-02-13T03:09:25;100470.60;;;-1.60
67758;BMP180;54562;47.620;18.786;2023-02-13T03:13:00;100469.40;;;-1.60
67758;BMP180;54562;47.620;18.786;2023-02-13T03:16:37;100473.40;;;-1.56
67758;BMP180;54562;47.620;18.786;2023-02-13T03:20:16;100476.80;;;-1.50
67758;BMP180;54562;47.620;18.786;2023-02-13T03:24:06;100479.00;;;-1.50
67758;BMP180;54562;47.620;18.786;2023-02-13T03:27:28;100480.00;;;-1.50
67758;BMP180;54562;47.620;18.786;2023-02-13T03:31:04;100479.80;;;-1.50
67758;BMP180;54562;47.620;18.786;2023-02-13T03:34:20;100480.40;;;-1.50
67758;BMP180;54562;47.620;18.786;2023-02-13T03:37:33;100482.20;;;-1.50
67758;BMP180;54562;47.620;18.786;2023-02-13T03:41:06;100475.80;;;-1.50
67758;BMP180;54562;47.620;18.786;2023-02-13T03:44:32;100484.00;;;-1.42
67758;BMP180;54562;47.620;18.786;2023-02-13T03:47:43;100482.00;;;-1.40
67758;BMP180;54562;47.620;18.786;2023-02-13T03:50:52;100477.80;;;-1.40
67758;BMP180;54562;47.620;18.786;2023-02-13T03:54:06;100473.80;;;-1.30
67758;BMP180;54562;47.620;18.786;2023-02-13T03:57:20;100472.00;;;-1.30
67758;BMP180;54562;47.620;18.786;2023-02-13T04:00:51;100472.00;;;-1.30
67758;BMP180;54562;47.620;18.786;2023-02-13T04:04:06;100474.40;;;-1.30
67758;BMP180;54562;47.620;18.786;2023-02-13T04:07:18;100469.00;;;-1.30
67758;BMP180;54562;47.620;18.786;2023-02-13T04:10:45;100467.80;;;-1.30
67758;BMP180;54562;47.620;18.786;2023-02-13T04:13:58;100466.60;;;-1.30
67758;BMP180;54562;47.620;18.786;2023-02-13T04:17:11;100459.40;;;-1.30
67758;BMP180;54562;47.620;18.786;2023-02-13T04:20:21;100467.00;;;-1.30
67758;BMP180;54562;47.620;18.786;2023-02-13T04:23:29;100462.80;;;-1.30
67758;BMP180;54562;47.620;18.786;2023-02-13T04:26:40;100470.60;;;-1.30
67758;BMP180;54562;47.620;18.786;2023-02-13T04:29:51;100459.80;;;-1.30
67758;BMP180;54562;47.620;18.786;2023-02-13T04:32:59;100446.20;;;-1.30
67758;BMP180;54562;47.620;18.786;2023-02-13T04:36:08;100442.60;;;-1.30
67758;BMP180;54562;47.620;18.786;2023-02-13T04:39:17;100442.40;;;-1.30
67758;BMP180;54562;47.620;18.786;2023-02-13T04:42:26;100436.80;;;-1.30
67758;BMP180;54562;47.620;18.786;2023-02-13T04:45:34;100438.80;;;-1.30
67758;BMP180;54562;47.620;18.786;2023-02-13T04:48:42;100449.00;;;-1.30
67758;BMP180;54562;47.620;18.786;2023-02-13T04:51:50;100447.40;;;-1.30
67758;BMP180;54562;47.620;18.786;2023-02-13T04:54:58;100447.20;;;-1.30
67758;BMP180;54562;47.620;18.786;2023-02-13T04:58:06;100449.60;;;-1.30
67758;BMP180;54562;47.620;18.786;2023-02-13T05:01:18;100449.60;;;-1.30
67758;BMP180;54562;47.620;18.786;2023-02-13T05:04:26;100451.80;;;-1.30
67758;BMP180;54562;47.620;18.786;2023-02-13T05:07:35;100449.20;;;-1.30
67758;BMP180;54562;47.620;18.786;2023-02-13T05:10:43;100450.00;;;-1.30
67758;BMP180;54562;47.620;18.786;2023-02-13T05:13:51;100441.40;;;-1.30
67758;BMP180;54562;47.620;18.786;2023-02-13T05:16:59;100442.60;;;-1.30
67758;BMP180;54562;47.620;18.786;2023-02-13T05:20:09;100450.00;;;-1.34
67758;BMP180;54562;47.620;18.786;2023-02-13T05:23:17;100449.60;;;-1.36
67758;BMP180;54562;47.620;18.786;2023-02-13T05:26:31;100445.60;;;-1.36
67758;BMP180;54562;47.620;18.786;2023-02-13T05:29:39;100438.00;;;-1.40
67758;BMP180;54562;47.620;18.786;2023-02-13T05:32:47;100439.00;;;-1.50
67758;BMP180;54562;47.620;18.786;2023-02-13T05:35:56;100444.20;;;-1.60
67758;BMP180;54562;47.620;18.786;2023-02-13T05:39:04;100445.00;;;-1.70
67758;BMP180;54562;47.620;18.786;2023-02-13T05:42:12;100444.60;;;-1.70
67758;BMP180;54562;47.620;18.786;2023-02-13T05:45:20;100442.20;;;-1.80
67758;BMP180;54562;47.620;18.786;2023-02-13T05:48:29;100448.80;;;-1.86
67758;BMP180;54562;47.620;18.786;2023-02-13T05:51:37;100454.00;;;-1.90
67758;BMP180;54562;47.620;18.786;2023-02-13T05:54:45;100451.20;;;-2.00
67758;BMP180;54562;47.620;18.786;2023-02-13T05:57:58;100454.00;;;-2.00
67758;BMP180;54562;47.620;18.786;2023-02-13T06:01:06;100465.20;;;-2.00
67758;BMP180;54562;47.620;18.786;2023-02-13T06:04:15;100467.00;;;-2.00
67758;BMP180;54562;47.620;18.786;2023-02-13T06:07:24;100473.60;;;-2.00
67758;BMP180;54562;47.620;18.786;2023-02-13T06:10:32;100467.60;;;-2.00
67758;BMP180;54562;47.620;18.786;2023-02-13T06:13:40;100472.00;;;-2.10
67758;BMP180;54562;47.620;18.786;2023-02-13T06:16:48;100476.80;;;-2.10
67758;BMP180;54562;47.620;18.786;2023-02-13T06:19:56;100477.80;;;-2.10
67758;BMP180;54562;47.620;18.786;2023-02-13T06:23:04;100480.20;;;-2.10
67758;BMP180;54562;47.620;18.786;2023-02-13T06:26:12;100479.40;;;-2.06
67758;BMP180;54562;47.620;18.786;2023-02-13T06:29:21;100486.20;;;-2.00
67758;BMP180;54562;47.620;18.786;2023-02-13T06:32:28;100487.00;;;-1.94
67758;BMP180;54562;47.620;18.786;2023-02-13T06:35:36;100490.00;;;-1.88
67758;BMP180;54562;47.620;18.786;2023-02-13T06:38:44;100484.40;;;-1.80
67758;BMP180;54562;47.620;18.786;2023-02-13T06:41:52;100485.80;;;-1.70
67758;BMP180;54562;47.620;18.786;2023-02-13T06:45:00;100493.60;;;-1.60
67758;BMP180;54562;47.620;18.786;2023-02-13T06:48:08;100498.80;;;-1.50
67758;BMP180;54562;47.620;18.786;2023-02-13T06:51:16;100498.80;;;-1.40
67758;BMP180;54562;47.620;18.786;2023-02-13T06:54:24;100500.20;;;-1.30
67758;BMP180;54562;47.620;18.786;2023-02-13T06:57:52;100502.00;;;-1.14
67758;BMP180;54562;47.620;18.786;2023-02-13T07:01:00;100496.80;;;-1.10
67758;BMP180;54562;47.620;18.786;2023-02-13T07:04:08;100497.60;;;-1.00
67758;BMP180;54562;47.620;18.786;2023-02-13T07:07:16;100497.00;;;-0.90
67758;BMP180;54562;47.620;18.786;2023-02-13T07:10:25;100502.60;;;-0.80
67758;BMP180;54562;47.620;18.786;2023-02-13T07:13:35;100503.40;;;-0.70
67758;BMP180;54562;47.620;18.786;2023-02-13T07:16:43;100503.80;;;-0.60
67758;BMP180;54562;47.620;18.786;2023-02-13T07:19:51;100504.00;;;-0.50
67758;BMP180;54562;47.620;18.786;2023-02-13T07:23:02;100500.80;;;-0.40
67758;BMP180;54562;47.620;18.786;2023-02-13T07:26:10;100500.60;;;-0.20
67758;BMP180;54562;47.620;18.786;2023-02-13T07:29:18;100500.40;;;-0.10
67758;BMP180;54562;47.620;18.786;2023-02-13T07:32:27;100495.20;;;0.04
67758;BMP180;54562;47.620;18.786;2023-02-13T07:35:35;100499.20;;;0.20
67758;BMP180;54562;47.620;18.786;2023-02-13T07:38:44;100505.60;;;0.32
67758;BMP180;54562;47.620;18.786;2023-02-13T07:41:53;100506.20;;;0.50
67758;BMP180;54562;47.620;18.786;2023-02-13T07:45:01;100503.60;;;0.60
67758;BMP180;54562;47.620;18.786;2023-02-13T07:48:09;100502.40;;;0.80
67758;BMP180;54562;47.620;18.786;2023-02-13T07:51:17;100506.00;;;0.90
67758;BMP180;54562;47.620;18.786;2023-02-13T07:54:25;100507.40;;;1.08
67758;BMP180;54562;47.620;18.786;2023-02-13T07:57:34;100510.00;;;1.20
67758;BMP180;54562;47.620;18.786;2023-02-13T08:00:42;100510.80;;;1.30
67758;BMP180;54562;47.620;18.786;2023-02-13T08:03:52;100503.60;;;1.40
67758;BMP180;54562;47.620;18.786;2023-02-13T08:06:58;100504.80;;;1.48
67758;BMP180;54562;47.620;18.786;2023-02-13T08:10:10;100499.60;;;1.58
67758;BMP180;54562;47.620;18.786;2023-02-13T08:13:36;100507.00;;;1.70
67758;BMP180;54562;47.620;18.786;2023-02-13T08:16:44;100513.00;;;1.80
67758;BMP180;54562;47.620;18.786;2023-02-13T08:19:53;100512.20;;;1.90
67758;BMP180;54562;47.620;18.786;2023-02-13T08:23:07;100507.40;;;2.00
67758;BMP180;54562;47.620;18.786;2023-02-13T08:26:16;100505.00;;;2.18
67758;BMP180;54562;47.620;18.786;2023-02-13T08:29:24;100503.40;;;2.30
67758;BMP180;54562;47.620;18.786;2023-02-13T08:32:32;100503.60;;;2.40
67758;BMP180;54562;47.620;18.786;2023-02-13T08:36:01;100503.20;;;2.58
67758;BMP180;54562;47.620;18.786;2023-02-13T08:39:11;100500.00;;;2.70
67758;BMP180;54562;47.620;18.786;2023-02-13T08:42:19;100497.40;;;2.84
67758;BMP180;54562;47.620;18.786;2023-02-13T08:45:28;100498.80;;;3.00
67758;BMP180;54562;47.620;18.786;2023-02-13T08:48:37;100499.60;;;3.10
67758;BMP180;54562;47.620;18.786;2023-02-13T08:51:45;100496.80;;;3.30
67758;BMP180;54562;47.620;18.786;2023-02-13T08:54:53;100494.60;;;3.40
67758;BMP180;54562;47.620;18.786;2023-02-13T08:58:03;100495.80;;;3.60
67758;BMP180;54562;47.620;18.786;2023-02-13T09:01:12;100495.20;;;3.70
67758;BMP180;54562;47.620;18.786;2023-02-13T09:04:20;100496.00;;;3.90
67758;BMP180;54562;47.620;18.786;2023-02-13T09:07:28;100498.20;;;4.00
67758;BMP180;54562;47.620;18.786;2023-02-13T09:10:36;100505.80;;;4.10
67758;BMP180;54562;47.620;18.786;2023-02-13T09:13:44;100504.80;;;4.24
67758;BMP180;54562;47.620;18.786;2023-02-13T09:16:53;100508.00;;;4.40
67758;BMP180;54562;47.620;18.786;2023-02-13T09:20:01;100501.80;;;4.50
67758;BMP180;54562;47.620;18.786;2023-02-13T09:23:09;100507.00;;;4.70
67758;BMP180;54562;47.620;18.786;2023-02-13T09:26:18;100507.20;;;4.80
67758;BMP180;54562;47.620;18.786;2023-02-13T09:29:27;100505.00;;;4.90
67758;BMP180;54562;47.620;18.786;2023-02-13T09:32:37;100509.00;;;5.00
67758;BMP180;54562;47.620;18.786;2023-02-13T09:35:47;100496.40;;;5.10
67758;BMP180;54562;47.620;18.786;2023-02-13T09:38:57;100499.20;;;5.20
67758;BMP180;54562;47.620;18.786;2023-02-13T09:42:16;100500.60;;;5.30
67758;BMP180;54562;47.620;18.786;2023-02-13T09:45:26;100501.60;;;5.48
67758;BMP180;54562;47.620;18.786;2023-02-13T09:48:40;100498.60;;;5.60
67758;BMP180;54562;47.620;18.786;2023-02-13T09:51:56;100502.80;;;5.74
67758;BMP180;54562;47.620;18.786;2023-02-13T09:55:15;100507.60;;;5.90
67758;BMP180;54562;47.620;18.786;2023-02-13T09:58:37;100503.00;;;6.00
67758;BMP180;54562;47.620;18.786;2023-02-13T10:01:51;100497.60;;;6.10
67758;BMP180;54562;47.620;18.786;2023-02-13T10:05:15;100492.40;;;6.22
67758;BMP180;54562;47.620;18.786;2023-02-13T10:08:40;100492.60;;;6.40
67758;BMP180;54562;47.620;18.786;2023-02-13T10:15:41;100485.80;;;6.60
67758;BMP180;54562;47.620;18.786;2023-02-13T10:18:58;100488.40;;;6.70
67758;BMP180;54562;47.620;18.786;2023-02-13T10:22:13;100492.20;;;6.82
67758;BMP180;54562;47.620;18.786;2023-02-13T10:25:26;100486.80;;;7.00
67758;BMP180;54562;47.620;18.786;2023-02-13T10:28:41;100483.80;;;7.12
67758;BMP180;54562;47.620;18.786;2023-02-13T10:31:53;100479.60;;;7.20
67758;BMP180;54562;47.620;18.786;2023-02-13T10:35:13;100476.20;;;7.38
67758;BMP180;54562;47.620;18.786;2023-02-13T10:38:26;100472.60;;;7.50
67758;BMP180;54562;47.620;18.786;2023-02-13T10:41:49;100471.60;;;7.70
67758;BMP180;54562;47.620;18.786;2023-02-13T10:45:15;100464.40;;;7.80
67758;BMP180;54562;47.620;18.786;2023-02-13T10:48:49;100459.60;;;7.92
67758;BMP180;54562;47.620;18.786;2023-02-13T10:52:14;100459.20;;;8.10
67758;BMP180;54562;47.620;18.786;2023-02-13T10:56:01;100460.60;;;8.30
67758;BMP180;54562;47.620;18.786;2023-02-13T10:59:57;100454.80;;;8.36
67758;BMP180;54562;47.620;18.786;2023-02-13T11:03:17;100451.80;;;8.40
67758;BMP180;54562;47.620;18.786;2023-02-13T11:06:26;100443.40;;;8.50
67758;BMP180;54562;47.620;18.786;2023-02-13T11:09:41;100439.80;;;8.60
67758;BMP180;54562;47.620;18.786;2023-02-13T11:12:51;100438.40;;;8.70
67758;BMP180;54562;47.620;18.786;2023-02-13T11:16:04;100432.40;;;8.70
67758;BMP180;54562;47.620;18.786;2023-02-13T11:19:21;100432.40;;;8.80
67758;BMP180;54562;47.620;18.786;2023-02-13T11:22:33;100424.00;;;8.80
67758;BMP180;54562;47.620;18.786;2023-02-13T11:25:54;100424.20;;;8.90
67758;BMP180;54562;47.620;18.786;2023-02-13T11:29:17;100416.80;;;8.90
67758;BMP180;54562;47.620;18.786;2023-02-13T11:32:30;100416.60;;;9.00
67758;BMP180;54562;47.620;18.786;2023-02-13T11:35:40;100412.40;;;9.10
67758;BMP180;54562;47.620;18.786;2023-02-13T11:39:01;100408.00;;;9.28
67758;BMP180;54562;47.620;18.786;2023-02-13T11:42:18;100405.60;;;9.40
67758;BMP180;54562;47.620;18.786;2023-02-13T11:46:16;100394.40;;;9.48
67758;BMP180;54562;47.620;18.786;2023-02-13T11:49:32;100395.60;;;9.54
67758;BMP180;54562;47.620;18.786;2023-02-13T11:52:41;100391.00;;;9.50
67758;BMP180;54562;47.620;18.786;2023-02-13T11:56:07;100394.40;;;9.50
67758;BMP180;54562;47.620;18.786;2023-02-13T11:59:16;100390.40;;;9.46
67758;BMP180;54562;47.620;18.786;2023-02-13T12:02:26;100387.20;;;9.42
67758;BMP180;54562;47.620;18.786;2023-02-13T12:05:35;100384.00;;;9.38
67758;BMP180;54562;47.620;18.786;2023-02-13T12:08:47;100386.00;;;9.40
67758;BMP180;54562;47.620;18.786;2023-02-13T12:12:00;100385.80;;;9.44
67758;BMP180;54562;47.620;18.786;2023-02-13T12:15:21;100380.40;;;9.50
67758;BMP180;54562;47.620;18.786;2023-02-13T12:18:36;100381.20;;;9.50
67758;BMP180;54562;47.620;18.786;2023-02-13T12:26:00;100373.20;;;9.30
67758;BMP180;54562;47.620;18.786;2023-02-13T12:29:36;100379.40;;;9.12
67758;BMP180;54562;47.620;18.786;2023-02-13T12:33:01;100372.00;;;9.10
67758;BMP180;54562;47.620;18.786;2023-02-13T12:36:20;100370.80;;;9.00
67758;BMP180;54562;47.620;18.786;2023-02-13T12:39:34;100363.80;;;8.90
67758;BMP180;54562;47.620;18.786;2023-02-13T12:43:01;100361.60;;;8.90
67758;BMP180;54562;47.620;18.786;2023-02-13T12:46:23;100359.20;;;9.00
67758;BMP180;54562;47.620;18.786;2023-02-13T12:50:14;100357.00;;;9.10
67758;BMP180;54562;47.620;18.786;2023-02-13T12:53:50;100348.20;;;9.10
67758;BMP180;54562;47.620;18.786;2023-02-13T12:57:26;100339.60;;;9.18
67758;BMP180;54562;47.620;18.786;2023-02-13T13:00:48;100343.60;;;9.30
67758;BMP180;54562;47.620;18.786;2023-02-13T13:04:15;100337.00;;;9.40
67758;BMP180;54562;47.620;18.786;2023-02-13T13:07:47;100337.40;;;9.40
67758;BMP180;54562;47.620;18.786;2023-02-13T13:11:16;100336.60;;;9.52
67758;BMP180;54562;47.620;18.786;2023-02-13T13:14:34;100335.40;;;9.60
67758;BMP180;54562;47.620;18.786;2023-02-13T13:18:00;100335.60;;;9.70
67758;BMP180;54562;47.620;18.786;2023-02-13T13:21:25;100338.20;;;9.80
67758;BMP180;54562;47.620;18.786;2023-02-13T13:24:53;100339.40;;;9.90
67758;BMP180;54562;47.620;18.786;2023-02-13T13:28:09;100330.20;;;10.00
67758;BMP180;54562;47.620;18.786;2023-02-13T13:31:18;100332.40;;;10.10
67758;BMP180;54562;47.620;18.786;2023-02-13T13:34:31;100339.00;;;10.16
67758;BMP180;54562;47.620;18.786;2023-02-13T13:37:47;100337.60;;;10.00
67758;BMP180;54562;47.620;18.786;2023-02-13T13:41:16;100336.80;;;10.00
67758;BMP180;54562;47.620;18.786;2023-02-13T13:45:00;100325.40;;;10.10
67758;BMP180;54562;47.620;18.786;2023-02-13T13:52:19;100320.60;;;10.50
67758;BMP180;54562;47.620;18.786;2023-02-13T13:56:06;100311.40;;;10.78
67758;BMP180;54562;47.620;18.786;2023-02-13T14:03:34;100310.80;;;10.54
67758;BMP180;54562;47.620;18.786;2023-02-13T14:07:20;100310.20;;;10.40
67758;BMP180;54562;47.620;18.786;2023-02-13T14:11:08;100312.40;;;10.48
67758;BMP180;54562;47.620;18.786;2023-02-13T14:14:54;100312.40;;;10.60
67758;BMP180;54562;47.620;18.786;2023-02-13T14:18:15;100312.00;;;10.58
67758;BMP180;54562;47.620;18.786;2023-02-13T14:21:26;100308.20;;;10.38
67758;BMP180;54562;47.620;18.786;2023-02-13T14:24:35;100308.40;;;10.10
67758;BMP180;54562;47.620;18.786;2023-02-13T14:27:43;100317.60;;;9.80
67758;BMP180;54562;47.620;18.786;2023-02-13T14:30:52;100318.20;;;9.50
67758;BMP180;54562;47.620;18.786;2023-02-13T14:34:23;100315.80;;;9.08
67758;BMP180;54562;47.620;18.786;2023-02-13T14:37:46;100318.80;;;8.72
67758;BMP180;54562;47.620;18.786;2023-02-13T14:40:55;100322.80;;;8.56
67758;BMP180;54562;47.620;18.786;2023-02-13T14:44:07;100321.60;;;8.30
67758;BMP180;54562;47.620;18.786;2023-02-13T14:47:28;100328.00;;;7.90
67758;BMP180;54562;47.620;18.786;2023-02-13T14:50:48;100327.80;;;7.62
67758;BMP180;54562;47.620;18.786;2023-02-13T14:54:04;100330.40;;;7.46
67758;BMP180;54562;47.620;18.786;2023-02-13T14:57:20;100328.80;;;7.30
67758;BMP180;54562;47.620;18.786;2023-02-13T15:00:38;100324.20;;;7.20
67758;BMP180;54562;47.620;18.786;2023-02-13T15:03:51;100320.00;;;7.00
67758;BMP180;54562;47.620;18.786;2023-02-13T15:07:04;100324.80;;;6.90
67758;BMP180;54562;47.620;18.786;2023-02-13T15:10:41;100318.80;;;6.72
67758;BMP180;54562;47.620;18.786;2023-02-13T15:13:52;100322.20;;;6.70
67758;BMP180;54562;47.620;18.786;2023-02-13T15:17:07;100321.80;;;6.68
67758;BMP180;54562;47.620;18.786;2023-02-13T15:20:29;100328.00;;;6.60
67758;BMP180;54562;47.620;18.786;2023-02-13T15:23:39;100327.40;;;6.60
67758;BMP180;54562;47.620;18.786;2023-02-13T15:26:56;100333.80;;;6.50
67758;BMP180;54562;47.620;18.786;2023-02-13T15:30:19;100336.20;;;6.40
67758;BMP180;54562;47.620;18.786;2023-02-13T15:33:34;100343.40;;;6.30
67758;BMP180;54562;47.620;18.786;2023-02-13T15:36:48;100341.00;;;6.20
67758;BMP180;54562;47.620;18.786;2023-02-13T15:39:56;100339.20;;;6.10
67758;BMP180;54562;47.620;18.786;2023-02-13T15:43:26;100337.20;;;6.10
67758;BMP180;54562;47.620;18.786;2023-02-13T15:46:38;100329.80;;;6.00
67758;BMP180;54562;47.620;18.786;2023-02-13T15:49:49;100322.80;;;5.90
67758;BMP180;54562;47.620;18.786;2023-02-13T15:52:58;100323.40;;;5.90
67758;BMP180;54562;47.620;18.786;2023-02-13T15:56:14;100318.00;;;5.80
67758;BMP180;54562;47.620;18.786;2023-02-13T15:59:23;100320.00;;;5.80
67758;BMP180;54562;47.620;18.786;2023-02-13T16:02:45;100323.00;;;5.70
67758;BMP180;54562;47.620;18.786;2023-02-13T16:05:55;100328.20;;;5.70
67758;BMP180;54562;47.620;18.786;2023-02-13T16:09:04;100317.40;;;5.60
67758;BMP180;54562;47.620;18.786;2023-02-13T16:12:22;100328.40;;;5.50
67758;BMP180;54562;47.620;18.786;2023-02-13T16:15:33;100336.00;;;5.40
67758;BMP180;54562;47.620;18.786;2023-02-13T16:18:47;100335.80;;;5.34
67758;BMP180;54562;47.620;18.786;2023-02-13T16:21:58;100336.80;;;5.30
67758;BMP180;54562;47.620;18.786;2023-02-13T16:25:23;100338.60;;;5.24
67758;BMP180;54562;47.620;18.786;2023-02-13T16:28:32;100340.20;;;5.20
67758;BMP180;54562;47.620;18.786;2023-02-13T16:31:41;100329.60;;;5.20
67758;BMP180;54562;47.620;18.786;2023-02-13T16:34:50;100329.00;;;5.20
67758;BMP180;54562;47.620;18.786;2023-02-13T16:38:01;100319.20;;;5.10
67758;BMP180;54562;47.620;18.786;2023-02-13T16:41:32;100315.60;;;5.10
67758;BMP180;54562;47.620;18.786;2023-02-13T16:44:40;100313.60;;;5.10
67758;BMP180;54562;47.620;18.786;2023-02-13T16:47:49;100319.60;;;5.10
67758;BMP180;54562;47.620;18.786;2023-02-13T16:51:06;100318.20;;;5.10
67758;BMP180;54562;47.620;18.786;2023-02-13T16:54:29;100311.80;;;5.10
67758;BMP180;54562;47.620;18.786;2023-02-13T16:57:37;100308.60;;;5.10
67758;BMP180;54562;47.620;18.786;2023-02-13T17:00:51;100314.80;;;5.10
67758;BMP180;54562;47.620;18.786;2023-02-13T17:04:00;100309.80;;;5.10
67758;BMP180;54562;47.620;18.786;2023-02-13T17:07:17;100303.00;;;5.06
67758;BMP180;54562;47.620;18.786;2023-02-13T17:10:28;100309.40;;;5.02
67758;BMP180;54562;47.620;18.786;2023-02-13T17:13:37;100307.00;;;5.00
67758;BMP180;54562;47.620;18.786;2023-02-13T17:16:47;100300.40;;;5.00
67758;BMP180;54562;47.620;18.786;2023-02-13T17:19:55;100302.40;;;5.00
67758;BMP180;54562;47.620;18.786;2023-02-13T17:23:06;100299.60;;;5.00
67758;BMP180;54562;47.620;18.786;2023-02-13T17:26:20;100300.80;;;5.00
67758;BMP180;54562;47.620;18.786;2023-02-13T17:29:28;100295.80;;;5.00
67758;BMP180;54562;47.620;18.786;2023-02-13T17:32:37;100297.40;;;4.90
67758;BMP180;54562;47.620;18.786;2023-02-13T17:35:45;100296.20;;;4.90
67758;BMP180;54562;47.620;18.786;2023-02-13T17:38:53;100292.40;;;4.90
67758;BMP180;54562;47.620;18.786;2023-02-13T17:42:01;100289.40;;;4.80
67758;BMP180;54562;47.620;18.786;2023-02-13T17:45:14;100284.40;;;4.80
67758;BMP180;54562;47.620;18.786;2023-02-13T17:48:23;100275.80;;;4.80
67758;BMP180;54562;47.620;18.786;2023-02-13T17:51:32;100276.60;;;4.78
67758;BMP180;54562;47.620;18.786;2023-02-13T17:54:40;100278.00;;;4.70
67758;BMP180;54562;47.620;18.786;2023-02-13T17:57:50;100275.20;;;4.70
67758;BMP180;54562;47.620;18.786;2023-02-13T18:00:58;100266.60;;;4.70
67758;BMP180;54562;47.620;18.786;2023-02-13T18:04:07;100266.40;;;4.62
67758;BMP180;54562;47.620;18.786;2023-02-13T18:07:19;100262.20;;;4.60
67758;BMP180;54562;47.620;18.786;2023-02-13T18:10:32;100267.80;;;4.52
67758;BMP180;54562;47.620;18.786;2023-02-13T18:13:41;100268.00;;;4.50
67758;BMP180;54562;47.620;18.786;2023-02-13T18:16:54;100263.20;;;4.40
67758;BMP180;54562;47.620;18.786;2023-02-13T18:20:02;100262.80;;;4.40
67758;BMP180;54562;47.620;18.786;2023-02-13T18:23:11;100255.20;;;4.30
67758;BMP180;54562;47.620;18.786;2023-02-13T18:26:19;100258.60;;;4.20
67758;BMP180;54562;47.620;18.786;2023-02-13T18:29:28;100253.80;;;4.18
67758;BMP180;54562;47.620;18.786;2023-02-13T18:32:36;100247.00;;;4.00
67758;BMP180;54562;47.620;18.786;2023-02-13T18:35:44;100247.80;;;3.90
67758;BMP180;54562;47.620;18.786;2023-02-13T18:38:54;100242.80;;;3.84
67758;BMP180;54562;47.620;18.786;2023-02-13T18:42:02;100236.60;;;3.78